WEN3465 CYXE-CYYC
Flight info
| Callsign | WEN3465 |
|---|---|
| Flight time | 1h 6m |
| Altitude | 22000 |
| Route | OVATA DCT BORIX DCT PIKLA BIRKO6 |
| Aircraft | DH8D/M-SDE2E3FGRY/H |
Departure
| Time | 2026-04-29 02:24 |
|---|---|
| Airport | Saskatoon John G. Diefenbaker International Airport (CYXE) |
Arrival
| Time | 2026-04-29 03:30 |
|---|---|
| Airport | Calgary International Airport (CYYC) |
| Time | Latitude | Longitude | Altitude | Speed | Heading |
|---|---|---|---|---|---|
| 2026-04-29 01:41 | 52.17075 | -106.69079 | 1650 ft | 0 kts | 150° |
| 2026-04-29 02:14 | 52.17074 | -106.69078 | 1650 ft | 0 kts | 150° |
| 2026-04-29 02:15 | 52.17083 | -106.69086 | 1650 ft | 2 kts | 150° |
| 2026-04-29 02:15 | 52.17096 | -106.69098 | 1650 ft | 2 kts | 150° |
| 2026-04-29 02:15 | 52.17108 | -106.69109 | 1650 ft | 2 kts | 150° |
| 2026-04-29 02:16 | 52.17117 | -106.69117 | 1650 ft | 2 kts | 143° |
| 2026-04-29 02:16 | 52.17126 | -106.69135 | 1650 ft | 2 kts | 117° |
| 2026-04-29 02:16 | 52.17131 | -106.69158 | 1650 ft | 2 kts | 92° |
| 2026-04-29 02:16 | 52.17129 | -106.69180 | 1650 ft | 1 kts | 69° |
| 2026-04-29 02:17 | 52.17128 | -106.69185 | 1650 ft | 0 kts | 67° |
| 2026-04-29 02:19 | 52.17128 | -106.69183 | 1650 ft | 1 kts | 67° |
| 2026-04-29 02:20 | 52.17154 | -106.69119 | 1650 ft | 8 kts | 41° |
| 2026-04-29 02:20 | 52.17193 | -106.69055 | 1650 ft | 6 kts | 65° |
| 2026-04-29 02:20 | 52.17191 | -106.68989 | 1649 ft | 5 kts | 102° |
| 2026-04-29 02:20 | 52.17184 | -106.68935 | 1649 ft | 4 kts | 101° |
| 2026-04-29 02:21 | 52.17175 | -106.68857 | 1649 ft | 8 kts | 100° |
| 2026-04-29 02:21 | 52.17162 | -106.68741 | 1649 ft | 11 kts | 101° |
| 2026-04-29 02:21 | 52.17146 | -106.68607 | 1648 ft | 11 kts | 101° |
| 2026-04-29 02:21 | 52.17129 | -106.68470 | 1647 ft | 12 kts | 101° |
| 2026-04-29 02:22 | 52.17115 | -106.68349 | 1647 ft | 9 kts | 97° |
| 2026-04-29 02:22 | 52.17171 | -106.68278 | 1647 ft | 14 kts | 11° |
| 2026-04-29 02:22 | 52.17278 | -106.68243 | 1646 ft | 14 kts | 11° |
| 2026-04-29 02:22 | 52.17361 | -106.68217 | 1645 ft | 10 kts | 11° |
| 2026-04-29 02:23 | 52.17419 | -106.68210 | 1645 ft | 6 kts | 316° |
| 2026-04-29 02:23 | 52.17430 | -106.68268 | 1645 ft | 5 kts | 282° |
| 2026-04-29 02:23 | 52.17456 | -106.68480 | 1646 ft | 36 kts | 281° |
| 2026-04-29 02:23 | 52.17558 | -106.69346 | 1650 ft | 118 kts | 281° |
| 2026-04-29 02:24 | 52.17755 | -106.70967 | 1742 ft | 161 kts | 282° |
| 2026-04-29 02:24 | 52.17970 | -106.72829 | 2239 ft | 173 kts | 281° |
| 2026-04-29 02:24 | 52.18177 | -106.74727 | 2985 ft | 173 kts | 280° |
| 2026-04-29 02:25 | 52.18592 | -106.78713 | 4049 ft | 182 kts | 279° |
| 2026-04-29 02:25 | 52.18770 | -106.80739 | 4580 ft | 185 kts | 279° |
| 2026-04-29 02:25 | 52.18996 | -106.82757 | 5136 ft | 187 kts | 282° |
| 2026-04-29 02:25 | 52.19185 | -106.84902 | 5609 ft | 195 kts | 271° |
| 2026-04-29 02:26 | 52.19033 | -106.87106 | 6184 ft | 199 kts | 262° |
| 2026-04-29 02:26 | 52.18819 | -106.89304 | 6800 ft | 199 kts | 263° |
| 2026-04-29 02:26 | 52.18618 | -106.91523 | 7390 ft | 200 kts | 264° |
| 2026-04-29 02:26 | 52.18433 | -106.93774 | 7968 ft | 202 kts | 267° |
| 2026-04-29 02:27 | 52.18290 | -106.96040 | 8563 ft | 203 kts | 269° |
| 2026-04-29 02:27 | 52.18153 | -106.98343 | 9161 ft | 205 kts | 268° |
| 2026-04-29 02:27 | 52.18006 | -107.00621 | 9753 ft | 207 kts | 268° |
| 2026-04-29 02:27 | 52.17849 | -107.02961 | 10381 ft | 209 kts | 268° |
| 2026-04-29 02:28 | 52.17685 | -107.05375 | 10735 ft | 223 kts | 268° |
| 2026-04-29 02:28 | 52.17505 | -107.07962 | 11013 ft | 239 kts | 267° |
| 2026-04-29 02:28 | 52.17303 | -107.10706 | 11415 ft | 248 kts | 266° |
| 2026-04-29 02:28 | 52.17088 | -107.13469 | 12074 ft | 247 kts | 266° |
| 2026-04-29 02:29 | 52.16871 | -107.16252 | 12650 ft | 249 kts | 266° |
| 2026-04-29 02:29 | 52.16652 | -107.19048 | 13221 ft | 252 kts | 266° |
| 2026-04-29 02:29 | 52.16434 | -107.21837 | 13743 ft | 254 kts | 267° |
| 2026-04-29 02:29 | 52.16210 | -107.24691 | 14264 ft | 256 kts | 267° |
| 2026-04-29 02:30 | 52.15984 | -107.27571 | 14784 ft | 258 kts | 266° |
| 2026-04-29 02:30 | 52.15753 | -107.30497 | 15273 ft | 260 kts | 267° |
| 2026-04-29 02:30 | 52.15522 | -107.33420 | 15738 ft | 262 kts | 267° |
| 2026-04-29 02:30 | 52.15288 | -107.36358 | 16220 ft | 264 kts | 267° |
| 2026-04-29 02:31 | 52.15053 | -107.39317 | 16656 ft | 266 kts | 266° |
| 2026-04-29 02:31 | 52.14813 | -107.42315 | 17079 ft | 268 kts | 266° |
| 2026-04-29 02:31 | 52.14573 | -107.45321 | 17491 ft | 270 kts | 266° |
| 2026-04-29 02:31 | 52.14329 | -107.48350 | 17891 ft | 272 kts | 267° |
| 2026-04-29 02:32 | 52.14084 | -107.51392 | 18279 ft | 274 kts | 267° |
| 2026-04-29 02:32 | 52.13833 | -107.54496 | 18673 ft | 275 kts | 267° |
| 2026-04-29 02:32 | 52.13584 | -107.57564 | 19043 ft | 277 kts | 267° |
| 2026-04-29 02:32 | 52.13330 | -107.60681 | 19406 ft | 278 kts | 267° |
| 2026-04-29 02:33 | 52.13078 | -107.63766 | 19744 ft | 282 kts | 267° |
| 2026-04-29 02:33 | 52.12821 | -107.66951 | 20327 ft | 279 kts | 266° |
| 2026-04-29 02:33 | 52.12561 | -107.70071 | 20572 ft | 282 kts | 267° |
| 2026-04-29 02:33 | 52.12295 | -107.73294 | 20780 ft | 286 kts | 267° |
| 2026-04-29 02:34 | 52.12033 | -107.76468 | 21054 ft | 287 kts | 267° |
| 2026-04-29 02:34 | 52.11767 | -107.79664 | 21308 ft | 288 kts | 267° |
| 2026-04-29 02:34 | 52.11496 | -107.82916 | 21551 ft | 289 kts | 267° |
| 2026-04-29 02:34 | 52.11226 | -107.86131 | 21774 ft | 290 kts | 267° |
| 2026-04-29 02:35 | 52.10954 | -107.89381 | 21996 ft | 292 kts | 267° |
| 2026-04-29 02:35 | 52.10675 | -107.92703 | 22085 ft | 298 kts | 267° |
| 2026-04-29 02:35 | 52.10394 | -107.96066 | 22104 ft | 306 kts | 267° |
| 2026-04-29 02:35 | 52.10106 | -107.99490 | 22112 ft | 310 kts | 267° |
| 2026-04-29 02:36 | 52.09797 | -108.02972 | 22113 ft | 314 kts | 266° |
| 2026-04-29 02:36 | 52.09457 | -108.06522 | 22110 ft | 317 kts | 266° |
| 2026-04-29 02:36 | 52.09117 | -108.10051 | 22110 ft | 320 kts | 266° |
| 2026-04-29 02:36 | 52.08770 | -108.13625 | 22104 ft | 319 kts | 265° |
| 2026-04-29 02:37 | 52.08424 | -108.17180 | 22104 ft | 317 kts | 265° |
| 2026-04-29 02:37 | 52.08083 | -108.20679 | 22104 ft | 316 kts | 265° |
| 2026-04-29 02:37 | 52.07744 | -108.24163 | 22104 ft | 315 kts | 266° |
| 2026-04-29 02:37 | 52.07402 | -108.27666 | 22105 ft | 314 kts | 266° |
| 2026-04-29 02:38 | 52.07059 | -108.31177 | 22110 ft | 313 kts | 266° |
| 2026-04-29 02:38 | 52.06722 | -108.34618 | 22114 ft | 312 kts | 266° |
| 2026-04-29 02:38 | 52.06380 | -108.38119 | 22120 ft | 311 kts | 266° |
| 2026-04-29 02:38 | 52.06038 | -108.41593 | 22121 ft | 311 kts | 266° |
| 2026-04-29 02:39 | 52.05703 | -108.45004 | 22126 ft | 310 kts | 266° |
| 2026-04-29 02:39 | 52.05360 | -108.48472 | 22126 ft | 310 kts | 266° |
| 2026-04-29 02:39 | 52.05019 | -108.51922 | 22123 ft | 310 kts | 266° |
| 2026-04-29 02:39 | 52.04678 | -108.55357 | 22125 ft | 309 kts | 266° |
| 2026-04-29 02:40 | 52.04334 | -108.58804 | 22124 ft | 309 kts | 266° |
| 2026-04-29 02:40 | 52.03992 | -108.62231 | 22124 ft | 309 kts | 266° |
| 2026-04-29 02:40 | 52.03648 | -108.65669 | 22125 ft | 309 kts | 265° |
| 2026-04-29 02:40 | 52.03303 | -108.69084 | 22124 ft | 307 kts | 265° |
| 2026-04-29 02:41 | 52.02957 | -108.72521 | 22124 ft | 307 kts | 265° |
| 2026-04-29 02:41 | 52.02612 | -108.75928 | 22128 ft | 307 kts | 265° |
| 2026-04-29 02:41 | 52.02265 | -108.79355 | 22124 ft | 307 kts | 265° |
| 2026-04-29 02:41 | 52.01922 | -108.82731 | 22125 ft | 307 kts | 265° |
| 2026-04-29 02:42 | 52.01572 | -108.86158 | 22126 ft | 308 kts | 265° |
| 2026-04-29 02:42 | 52.01221 | -108.89581 | 22126 ft | 308 kts | 265° |
| 2026-04-29 02:42 | 52.00869 | -108.93006 | 22125 ft | 308 kts | 265° |
| 2026-04-29 02:42 | 52.00514 | -108.96465 | 22126 ft | 310 kts | 265° |
| 2026-04-29 02:43 | 52.00162 | -108.99876 | 22130 ft | 311 kts | 265° |
| 2026-04-29 02:43 | 51.99804 | -109.03351 | 22128 ft | 312 kts | 265° |
| 2026-04-29 02:43 | 51.99445 | -109.06804 | 22126 ft | 313 kts | 265° |
| 2026-04-29 02:43 | 51.99079 | -109.10312 | 22130 ft | 314 kts | 265° |
| 2026-04-29 02:44 | 51.98716 | -109.13791 | 22129 ft | 314 kts | 265° |
| 2026-04-29 02:44 | 51.98352 | -109.17268 | 22125 ft | 315 kts | 265° |
| 2026-04-29 02:44 | 51.97985 | -109.20760 | 22127 ft | 315 kts | 265° |
| 2026-04-29 02:44 | 51.97615 | -109.24263 | 22126 ft | 316 kts | 265° |
| 2026-04-29 02:45 | 51.97245 | -109.27759 | 22125 ft | 316 kts | 265° |
| 2026-04-29 02:45 | 51.96874 | -109.31263 | 22124 ft | 316 kts | 265° |
| 2026-04-29 02:45 | 51.96501 | -109.34766 | 22124 ft | 316 kts | 265° |
| 2026-04-29 02:45 | 51.96125 | -109.38284 | 22121 ft | 317 kts | 265° |
| 2026-04-29 02:46 | 51.95750 | -109.41792 | 22128 ft | 317 kts | 265° |
| 2026-04-29 02:46 | 51.95373 | -109.45299 | 22118 ft | 317 kts | 265° |
| 2026-04-29 02:46 | 51.94995 | -109.48813 | 22122 ft | 317 kts | 265° |
| 2026-04-29 02:46 | 51.94614 | -109.52336 | 22123 ft | 317 kts | 265° |
| 2026-04-29 02:47 | 51.94231 | -109.55874 | 22122 ft | 317 kts | 265° |
| 2026-04-29 02:47 | 51.93850 | -109.59389 | 22120 ft | 317 kts | 265° |
| 2026-04-29 02:47 | 51.93471 | -109.62870 | 22118 ft | 317 kts | 265° |
| 2026-04-29 02:47 | 51.93085 | -109.66396 | 22114 ft | 317 kts | 264° |
| 2026-04-29 02:48 | 51.92697 | -109.69932 | 22113 ft | 316 kts | 264° |
| 2026-04-29 02:48 | 51.92311 | -109.73441 | 22114 ft | 315 kts | 264° |
| 2026-04-29 02:48 | 51.91927 | -109.76923 | 22121 ft | 315 kts | 264° |
| 2026-04-29 02:48 | 51.91540 | -109.80425 | 22115 ft | 316 kts | 264° |
| 2026-04-29 02:49 | 51.91156 | -109.83885 | 22124 ft | 316 kts | 264° |
| 2026-04-29 02:49 | 51.90764 | -109.87416 | 22118 ft | 316 kts | 265° |
| 2026-04-29 02:49 | 51.90374 | -109.90916 | 22115 ft | 316 kts | 265° |
| 2026-04-29 02:49 | 51.89984 | -109.94416 | 22116 ft | 317 kts | 264° |
| 2026-04-29 02:50 | 51.89588 | -109.97944 | 22115 ft | 316 kts | 264° |
| 2026-04-29 02:50 | 51.89198 | -110.01467 | 22115 ft | 314 kts | 265° |
| 2026-04-29 02:50 | 51.88881 | -110.04968 | 22119 ft | 312 kts | 267° |
| 2026-04-29 02:50 | 51.88584 | -110.08490 | 22122 ft | 312 kts | 267° |
| 2026-04-29 02:51 | 51.88289 | -110.11946 | 22112 ft | 313 kts | 267° |
| 2026-04-29 02:51 | 51.87989 | -110.15431 | 22117 ft | 313 kts | 267° |
| 2026-04-29 02:51 | 51.87688 | -110.18901 | 22122 ft | 313 kts | 267° |
| 2026-04-29 02:51 | 51.87384 | -110.22369 | 22116 ft | 313 kts | 266° |
| 2026-04-29 02:52 | 51.87075 | -110.25870 | 22111 ft | 313 kts | 266° |
| 2026-04-29 02:52 | 51.86767 | -110.29350 | 22120 ft | 313 kts | 267° |
| 2026-04-29 02:52 | 51.86456 | -110.32832 | 22111 ft | 313 kts | 267° |
| 2026-04-29 02:52 | 51.86146 | -110.36297 | 22114 ft | 313 kts | 266° |
| 2026-04-29 02:53 | 51.85832 | -110.39794 | 22120 ft | 313 kts | 266° |
| 2026-04-29 02:53 | 51.85519 | -110.43257 | 22117 ft | 314 kts | 266° |
| 2026-04-29 02:53 | 51.85206 | -110.46716 | 22114 ft | 314 kts | 266° |
| 2026-04-29 02:53 | 51.84888 | -110.50212 | 22124 ft | 314 kts | 266° |
| 2026-04-29 02:54 | 51.84566 | -110.53725 | 22122 ft | 314 kts | 266° |
| 2026-04-29 02:54 | 51.84249 | -110.57177 | 22122 ft | 314 kts | 266° |
| 2026-04-29 02:54 | 51.83925 | -110.60697 | 22114 ft | 314 kts | 266° |
| 2026-04-29 02:54 | 51.83606 | -110.64153 | 22117 ft | 314 kts | 266° |
| 2026-04-29 02:55 | 51.83278 | -110.67688 | 22115 ft | 314 kts | 265° |
| 2026-04-29 02:55 | 51.82951 | -110.71205 | 22114 ft | 313 kts | 265° |
| 2026-04-29 02:55 | 51.82629 | -110.74664 | 22118 ft | 313 kts | 265° |
| 2026-04-29 02:55 | 51.82307 | -110.78102 | 22115 ft | 313 kts | 265° |
| 2026-04-29 02:56 | 51.81979 | -110.81602 | 22112 ft | 314 kts | 265° |
| 2026-04-29 02:56 | 51.81654 | -110.85055 | 22114 ft | 314 kts | 265° |
| 2026-04-29 02:56 | 51.81323 | -110.88562 | 22113 ft | 314 kts | 265° |
| 2026-04-29 02:56 | 51.80993 | -110.92039 | 22118 ft | 314 kts | 265° |
| 2026-04-29 02:57 | 51.80662 | -110.95518 | 22112 ft | 314 kts | 265° |
| 2026-04-29 02:57 | 51.80329 | -110.99021 | 22111 ft | 315 kts | 265° |
| 2026-04-29 02:57 | 51.80000 | -111.02458 | 22117 ft | 315 kts | 265° |
| 2026-04-29 02:57 | 51.79661 | -111.05988 | 22113 ft | 315 kts | 265° |
| 2026-04-29 02:58 | 51.79328 | -111.09449 | 22115 ft | 314 kts | 265° |
| 2026-04-29 02:58 | 51.78992 | -111.12939 | 22111 ft | 314 kts | 265° |
| 2026-04-29 02:58 | 51.78656 | -111.16409 | 22114 ft | 314 kts | 265° |
| 2026-04-29 02:58 | 51.78319 | -111.19875 | 22115 ft | 314 kts | 265° |
| 2026-04-29 02:59 | 51.77977 | -111.23375 | 22113 ft | 314 kts | 265° |
| 2026-04-29 02:59 | 51.77638 | -111.26837 | 22116 ft | 314 kts | 265° |
| 2026-04-29 02:59 | 51.77298 | -111.30299 | 22114 ft | 314 kts | 265° |
| 2026-04-29 02:59 | 51.76952 | -111.33810 | 22117 ft | 314 kts | 265° |
| 2026-04-29 03:00 | 51.76609 | -111.37277 | 22119 ft | 314 kts | 265° |
| 2026-04-29 03:00 | 51.76264 | -111.40765 | 22116 ft | 314 kts | 265° |
| 2026-04-29 03:00 | 51.75921 | -111.44217 | 22118 ft | 314 kts | 265° |
| 2026-04-29 03:00 | 51.75574 | -111.47704 | 22124 ft | 314 kts | 265° |
| 2026-04-29 03:01 | 51.75225 | -111.51190 | 22124 ft | 314 kts | 265° |
| 2026-04-29 03:01 | 51.74880 | -111.54636 | 22122 ft | 314 kts | 265° |
| 2026-04-29 03:01 | 51.74530 | -111.58112 | 22121 ft | 314 kts | 265° |
| 2026-04-29 03:01 | 51.74174 | -111.61636 | 22116 ft | 314 kts | 265° |
| 2026-04-29 03:02 | 51.73823 | -111.65100 | 22121 ft | 314 kts | 264° |
| 2026-04-29 03:02 | 51.73471 | -111.68567 | 22122 ft | 313 kts | 264° |
| 2026-04-29 03:02 | 51.73112 | -111.72070 | 22116 ft | 311 kts | 264° |
| 2026-04-29 03:02 | 51.72758 | -111.75537 | 22122 ft | 311 kts | 264° |
| 2026-04-29 03:03 | 51.72410 | -111.78938 | 22122 ft | 312 kts | 264° |
| 2026-04-29 03:03 | 51.72055 | -111.82404 | 22126 ft | 312 kts | 264° |
| 2026-04-29 03:03 | 51.71701 | -111.85838 | 22130 ft | 312 kts | 264° |
| 2026-04-29 03:03 | 51.71344 | -111.89292 | 22132 ft | 313 kts | 264° |
| 2026-04-29 03:04 | 51.70990 | -111.92706 | 22131 ft | 313 kts | 264° |
| 2026-04-29 03:04 | 51.70627 | -111.96196 | 22129 ft | 313 kts | 264° |
| 2026-04-29 03:04 | 51.70270 | -111.99616 | 22136 ft | 313 kts | 264° |
| 2026-04-29 03:04 | 51.69908 | -112.03068 | 22131 ft | 313 kts | 264° |
| 2026-04-29 03:05 | 51.69545 | -112.06525 | 22134 ft | 313 kts | 264° |
| 2026-04-29 03:05 | 51.69180 | -112.09994 | 22128 ft | 313 kts | 264° |
| 2026-04-29 03:05 | 51.68816 | -112.13440 | 22130 ft | 313 kts | 264° |
| 2026-04-29 03:05 | 51.68452 | -112.16882 | 22125 ft | 313 kts | 264° |
| 2026-04-29 03:06 | 51.68084 | -112.20342 | 22126 ft | 313 kts | 264° |
| 2026-04-29 03:06 | 51.67721 | -112.23757 | 22125 ft | 313 kts | 264° |
| 2026-04-29 03:06 | 51.67352 | -112.27209 | 22127 ft | 313 kts | 264° |
| 2026-04-29 03:06 | 51.66981 | -112.30664 | 22131 ft | 313 kts | 264° |
| 2026-04-29 03:07 | 51.66611 | -112.34112 | 22120 ft | 313 kts | 265° |
| 2026-04-29 03:07 | 51.66239 | -112.37558 | 22117 ft | 313 kts | 265° |
| 2026-04-29 03:07 | 51.65864 | -112.41032 | 22115 ft | 313 kts | 265° |
| 2026-04-29 03:07 | 51.65492 | -112.44458 | 22112 ft | 314 kts | 265° |
| 2026-04-29 03:08 | 51.64943 | -112.47872 | 22120 ft | 317 kts | 257° |
| 2026-04-29 03:08 | 51.64218 | -112.51228 | 22114 ft | 317 kts | 256° |
| 2026-04-29 03:08 | 51.63485 | -112.54554 | 22111 ft | 317 kts | 256° |
| 2026-04-29 03:08 | 51.62751 | -112.57892 | 22108 ft | 317 kts | 256° |
| 2026-04-29 03:09 | 51.62021 | -112.61211 | 22111 ft | 317 kts | 256° |
| 2026-04-29 03:09 | 51.61292 | -112.64533 | 22112 ft | 317 kts | 256° |
| 2026-04-29 03:09 | 51.60550 | -112.67909 | 22108 ft | 316 kts | 255° |
| 2026-04-29 03:09 | 51.59819 | -112.71244 | 22104 ft | 315 kts | 255° |
| 2026-04-29 03:10 | 51.59089 | -112.74577 | 22109 ft | 315 kts | 255° |
| 2026-04-29 03:10 | 51.58362 | -112.77892 | 22116 ft | 315 kts | 255° |
| 2026-04-29 03:10 | 51.57635 | -112.81207 | 22111 ft | 316 kts | 255° |
| 2026-04-29 03:10 | 51.56907 | -112.84522 | 22111 ft | 316 kts | 255° |
| 2026-04-29 03:11 | 51.56179 | -112.87833 | 22105 ft | 317 kts | 256° |
| 2026-04-29 03:11 | 51.55439 | -112.91203 | 22104 ft | 317 kts | 256° |
| 2026-04-29 03:11 | 51.54713 | -112.94508 | 22108 ft | 317 kts | 256° |
| 2026-04-29 03:11 | 51.53979 | -112.97845 | 22106 ft | 317 kts | 256° |
| 2026-04-29 03:12 | 51.53242 | -113.01189 | 22106 ft | 317 kts | 256° |
| 2026-04-29 03:12 | 51.52511 | -113.04500 | 22105 ft | 317 kts | 256° |
| 2026-04-29 03:12 | 51.51774 | -113.07829 | 22103 ft | 317 kts | 256° |
| 2026-04-29 03:12 | 51.51032 | -113.11166 | 22101 ft | 317 kts | 256° |
| 2026-04-29 03:13 | 51.50289 | -113.14500 | 22100 ft | 318 kts | 256° |
| 2026-04-29 03:13 | 51.49551 | -113.17803 | 22105 ft | 318 kts | 256° |
| 2026-04-29 03:13 | 51.48803 | -113.21162 | 21882 ft | 325 kts | 256° |
| 2026-04-29 03:13 | 51.48033 | -113.24590 | 21335 ft | 322 kts | 255° |
| 2026-04-29 03:14 | 51.46988 | -113.27693 | 20831 ft | 319 kts | 239° |
| 2026-04-29 03:14 | 51.45603 | -113.30422 | 20343 ft | 315 kts | 235° |
| 2026-04-29 03:14 | 51.44201 | -113.33102 | 19860 ft | 312 kts | 235° |
| 2026-04-29 03:14 | 51.42817 | -113.35742 | 19385 ft | 309 kts | 235° |
| 2026-04-29 03:15 | 51.41445 | -113.38362 | 18916 ft | 306 kts | 235° |
| 2026-04-29 03:15 | 51.40096 | -113.40944 | 18399 ft | 305 kts | 235° |
| 2026-04-29 03:15 | 51.38730 | -113.43562 | 17891 ft | 303 kts | 235° |
| 2026-04-29 03:15 | 51.37392 | -113.46121 | 17417 ft | 300 kts | 235° |
| 2026-04-29 03:16 | 51.36078 | -113.48633 | 16953 ft | 297 kts | 236° |
| 2026-04-29 03:16 | 51.34753 | -113.51168 | 16495 ft | 294 kts | 236° |
| 2026-04-29 03:16 | 51.33460 | -113.53639 | 16048 ft | 292 kts | 236° |
| 2026-04-29 03:16 | 51.32162 | -113.56120 | 15595 ft | 289 kts | 236° |
| 2026-04-29 03:17 | 51.30893 | -113.58546 | 15158 ft | 287 kts | 236° |
| 2026-04-29 03:17 | 51.29609 | -113.60997 | 14714 ft | 284 kts | 236° |
| 2026-04-29 03:17 | 51.28354 | -113.63392 | 14282 ft | 282 kts | 236° |
| 2026-04-29 03:17 | 51.27109 | -113.65765 | 13851 ft | 280 kts | 234° |
| 2026-04-29 03:18 | 51.25859 | -113.68147 | 13417 ft | 277 kts | 235° |
| 2026-04-29 03:18 | 51.24628 | -113.70489 | 12997 ft | 274 kts | 235° |
| 2026-04-29 03:18 | 51.23406 | -113.72815 | 12576 ft | 273 kts | 235° |
| 2026-04-29 03:18 | 51.22194 | -113.75122 | 12151 ft | 271 kts | 235° |
| 2026-04-29 03:19 | 51.20986 | -113.77419 | 11737 ft | 269 kts | 235° |
| 2026-04-29 03:19 | 51.19801 | -113.79668 | 11345 ft | 267 kts | 235° |
| 2026-04-29 03:19 | 51.18602 | -113.81944 | 10941 ft | 266 kts | 235° |
| 2026-04-29 03:19 | 51.17299 | -113.84037 | 10442 ft | 274 kts | 218° |
| 2026-04-29 03:20 | 51.15482 | -113.84976 | 10056 ft | 280 kts | 187° |
| 2026-04-29 03:20 | 51.13556 | -113.85030 | 9636 ft | 281 kts | 182° |
| 2026-04-29 03:20 | 51.11612 | -113.85007 | 9209 ft | 279 kts | 181° |
| 2026-04-29 03:20 | 51.09697 | -113.84975 | 8778 ft | 272 kts | 181° |
| 2026-04-29 03:21 | 51.07832 | -113.84948 | 8372 ft | 265 kts | 181° |
| 2026-04-29 03:21 | 51.06030 | -113.84926 | 8106 ft | 251 kts | 181° |
| 2026-04-29 03:21 | 51.04331 | -113.84913 | 8042 ft | 242 kts | 181° |
| 2026-04-29 03:21 | 51.02650 | -113.84920 | 8021 ft | 241 kts | 182° |
| 2026-04-29 03:22 | 51.00982 | -113.84929 | 8019 ft | 239 kts | 182° |
| 2026-04-29 03:22 | 50.99311 | -113.84937 | 7936 ft | 237 kts | 182° |
| 2026-04-29 03:22 | 50.97678 | -113.84943 | 7818 ft | 234 kts | 182° |
| 2026-04-29 03:22 | 50.96044 | -113.84954 | 7702 ft | 235 kts | 182° |
| 2026-04-29 03:23 | 50.94404 | -113.85009 | 7573 ft | 235 kts | 183° |
| 2026-04-29 03:23 | 50.92784 | -113.85090 | 7448 ft | 236 kts | 183° |
| 2026-04-29 03:23 | 50.91132 | -113.85182 | 7328 ft | 236 kts | 183° |
| 2026-04-29 03:23 | 50.89508 | -113.85571 | 7196 ft | 234 kts | 204° |
| 2026-04-29 03:24 | 50.88250 | -113.87095 | 7059 ft | 226 kts | 236° |
| 2026-04-29 03:24 | 50.87674 | -113.89398 | 6936 ft | 223 kts | 261° |
| 2026-04-29 03:24 | 50.87499 | -113.91854 | 6819 ft | 225 kts | 276° |
| 2026-04-29 03:24 | 50.88046 | -113.94147 | 6688 ft | 224 kts | 309° |
| 2026-04-29 03:25 | 50.89192 | -113.95770 | 6578 ft | 223 kts | 324° |
| 2026-04-29 03:25 | 50.90413 | -113.97221 | 6514 ft | 214 kts | 324° |
| 2026-04-29 03:25 | 50.91579 | -113.98584 | 6495 ft | 204 kts | 330° |
| 2026-04-29 03:25 | 50.92899 | -113.98987 | 6496 ft | 193 kts | 7° |
| 2026-04-29 03:26 | 50.94237 | -113.98886 | 6503 ft | 190 kts | 354° |
| 2026-04-29 03:26 | 50.95561 | -113.99035 | 6502 ft | 190 kts | 0° |
| 2026-04-29 03:26 | 50.96894 | -113.98996 | 6386 ft | 195 kts | 360° |
| 2026-04-29 03:26 | 50.98215 | -113.99037 | 6072 ft | 188 kts | 359° |
| 2026-04-29 03:27 | 50.99474 | -113.99046 | 5818 ft | 172 kts | 0° |
| 2026-04-29 03:27 | 51.00611 | -113.99052 | 5552 ft | 151 kts | 0° |
| 2026-04-29 03:27 | 51.01610 | -113.99049 | 5377 ft | 140 kts | 2° |
| 2026-04-29 03:27 | 51.02577 | -113.99030 | 5194 ft | 139 kts | 2° |
| 2026-04-29 03:28 | 51.03538 | -113.99022 | 5023 ft | 139 kts | 2° |
| 2026-04-29 03:28 | 51.04528 | -113.99020 | 4848 ft | 140 kts | 2° |
| 2026-04-29 03:28 | 51.05511 | -113.99020 | 4660 ft | 140 kts | 2° |
| 2026-04-29 03:28 | 51.06495 | -113.99024 | 4465 ft | 138 kts | 2° |
| 2026-04-29 03:29 | 51.07447 | -113.99023 | 4282 ft | 135 kts | 2° |
| 2026-04-29 03:29 | 51.08379 | -113.99023 | 4108 ft | 134 kts | 3° |
| 2026-04-29 03:29 | 51.09323 | -113.99020 | 3936 ft | 138 kts | 3° |
| 2026-04-29 03:29 | 51.10287 | -113.99044 | 3733 ft | 138 kts | 3° |
| 2026-04-29 03:30 | 51.11250 | -113.99043 | 3569 ft | 138 kts | 4° |
| 2026-04-29 03:30 | 51.12041 | -113.99034 | 3568 ft | 81 kts | 1° |
| 2026-04-29 03:30 | 51.12318 | -113.99071 | 3573 ft | 21 kts | 340° |
| 2026-04-29 03:30 | 51.12426 | -113.99157 | 3574 ft | 13 kts | 329° |
| 2026-04-29 03:31 | 51.12541 | -113.99272 | 3576 ft | 7 kts | 335° |
| 2026-04-29 03:31 | 51.12582 | -113.99306 | 3577 ft | 5 kts | 327° |
| 2026-04-29 03:31 | 51.12609 | -113.99354 | 3577 ft | 8 kts | 290° |
| 2026-04-29 03:32 | 51.12614 | -113.99487 | 3576 ft | 14 kts | 270° |
| 2026-04-29 03:32 | 51.12614 | -113.99642 | 3575 ft | 13 kts | 270° |
| 2026-04-29 03:32 | 51.12614 | -113.99791 | 3574 ft | 12 kts | 269° |
| 2026-04-29 03:32 | 51.12613 | -113.99929 | 3573 ft | 12 kts | 270° |
| 2026-04-29 03:33 | 51.12613 | -114.00075 | 3570 ft | 13 kts | 270° |
| 2026-04-29 03:33 | 51.12613 | -114.00218 | 3568 ft | 12 kts | 270° |
| 2026-04-29 03:33 | 51.12614 | -114.00360 | 3566 ft | 13 kts | 269° |
| 2026-04-29 03:33 | 51.12613 | -114.00507 | 3564 ft | 13 kts | 270° |
| 2026-04-29 03:34 | 51.12614 | -114.00649 | 3563 ft | 12 kts | 269° |
| 2026-04-29 03:34 | 51.12613 | -114.00789 | 3561 ft | 12 kts | 270° |
| 2026-04-29 03:34 | 51.12613 | -114.00931 | 3559 ft | 12 kts | 270° |
| 2026-04-29 03:34 | 51.12611 | -114.01073 | 3557 ft | 13 kts | 265° |
| 2026-04-29 03:35 | 51.12603 | -114.01218 | 3555 ft | 12 kts | 266° |
| 2026-04-29 03:35 | 51.12603 | -114.01356 | 3555 ft | 12 kts | 270° |
| 2026-04-29 03:35 | 51.12603 | -114.01489 | 3554 ft | 11 kts | 270° |
| 2026-04-29 03:35 | 51.12603 | -114.01613 | 3554 ft | 10 kts | 270° |
| 2026-04-29 03:36 | 51.12647 | -114.01683 | 3554 ft | 9 kts | 359° |
| 2026-04-29 03:36 | 51.12706 | -114.01681 | 3554 ft | 9 kts | 0° |
| 2026-04-29 03:36 | 51.12805 | -114.01681 | 3554 ft | 14 kts | 0° |
| 2026-04-29 03:36 | 51.12894 | -114.01681 | 3554 ft | 11 kts | 360° |
| 2026-04-29 03:37 | 51.12966 | -114.01681 | 3553 ft | 13 kts | 0° |
| 2026-04-29 03:37 | 51.13082 | -114.01687 | 3553 ft | 15 kts | 348° |
| 2026-04-29 03:37 | 51.13178 | -114.01720 | 3552 ft | 12 kts | 354° |
| 2026-04-29 03:37 | 51.13256 | -114.01721 | 3552 ft | 10 kts | 0° |
| 2026-04-29 03:38 | 51.13323 | -114.01720 | 3551 ft | 11 kts | 1° |
| 2026-04-29 03:38 | 51.13389 | -114.01675 | 3551 ft | 9 kts | 63° |
| 2026-04-29 03:38 | 51.13412 | -114.01596 | 3552 ft | 9 kts | 65° |
| 2026-04-29 03:38 | 51.13426 | -114.01504 | 3553 ft | 6 kts | 91° |
| 2026-04-29 03:39 | 51.13425 | -114.01446 | 3554 ft | 6 kts | 91° |
| 2026-04-29 03:39 | 51.13426 | -114.01376 | 3555 ft | 4 kts | 87° |
| 2026-04-29 03:39 | 51.13426 | -114.01339 | 3555 ft | 2 kts | 90° |
| 2026-04-29 03:39 | 51.13426 | -114.01310 | 3556 ft | 1 kts | 90° |
| 2026-04-29 03:40 | 51.13426 | -114.01294 | 3557 ft | 1 kts | 90° |
| 2026-04-29 03:40 | 51.13426 | -114.01289 | 3557 ft | 0 kts | 90° |